Time;durP1;ratioP1;P1;durP2;ratioP2;P2;SDS_P1;SDS_P2;PMS_P1;PMS_P2;Temp;Humidity;BMP_temperature;BMP_pressure;BME280_temperature;BME280_humidity;BME280_pressure;Samples;Min_cycle;Max_cycle;Signal;HPM_P1;HPM_P2
2023/04/11 00:02:03;;;;;;;3.27;1.27;;;17.50;21.30;;;;;;5070348;28;20171;-67
2023/04/11 00:04:29;;;;;;;3.30;1.30;;;17.80;20.50;;;;;;5067685;28;20596;-67
2023/04/11 00:06:55;;;;;;;3.20;1.20;;;18.00;20.00;;;;;;5068428;28;20441;-67
2023/04/11 00:09:21;;;;;;;3.30;1.40;;;18.40;19.50;;;;;;5069227;28;20180;-67
2023/04/11 00:11:47;;;;;;;3.50;1.50;;;17.80;20.50;;;;;;5072623;28;20411;-67
2023/04/11 00:14:14;;;;;;;3.27;1.20;;;17.70;20.20;;;;;;5070341;28;20424;-67
2023/04/11 00:16:40;;;;;;;3.30;1.30;;;17.50;20.50;;;;;;5070116;28;20666;-67
2023/04/11 00:19:08;;;;;;;3.20;1.23;;;17.40;20.70;;;;;;5070833;28;20407;-67
2023/04/11 00:21:34;;;;;;;3.37;1.30;;;17.70;20.50;;;;;;5070586;28;20437;-67
2023/04/11 00:24:00;;;;;;;3.30;1.30;;;17.80;20.30;;;;;;5071306;28;20448;-67
2023/04/11 00:26:26;;;;;;;3.20;1.27;;;17.80;20.20;;;;;;5070740;28;20444;-67
2023/04/11 00:28:51;;;;;;;3.60;1.40;;;17.60;20.10;;;;;;5071424;28;20175;-67
2023/04/11 00:31:17;;;;;;;3.20;1.20;;;17.70;20.20;;;;;;5071970;28;20409;-67
2023/04/11 00:33:43;;;;;;;3.33;1.40;;;17.90;20.10;;;;;;5071635;28;20209;-67
2023/04/11 00:36:09;;;;;;;3.20;1.30;;;17.50;20.30;;;;;;5072299;28;20206;-67
2023/04/11 00:38:35;;;;;;;3.27;1.30;;;17.30;20.90;;;;;;5071284;28;20427;-67
2023/04/11 00:41:00;;;;;;;3.90;1.70;;;17.60;20.40;;;;;;5070675;28;20438;-67
2023/04/11 00:43:26;;;;;;;3.20;1.20;;;17.60;20.50;;;;;;5070406;28;20181;-67
2023/04/11 00:45:52;;;;;;;3.30;1.30;;;17.40;20.70;;;;;;5070554;28;20203;-66
2023/04/11 00:48:17;;;;;;;3.30;1.30;;;17.20;21.90;;;;;;5070265;28;20270;-66
2023/04/11 00:50:44;;;;;;;3.20;1.20;;;16.80;21.50;;;;;;5067478;28;20178;-67
2023/04/11 00:53:13;;;;;;;3.20;1.30;;;17.00;21.50;;;;;;5099571;28;20502;-66
2023/04/11 00:55:39;;;;;;;3.40;1.40;;;16.60;22.20;;;;;;5070605;28;20474;-67
2023/04/11 00:58:07;;;;;;;3.07;1.20;;;16.80;22.70;;;;;;5070585;28;20471;-67
2023/04/11 01:00:34;;;;;;;3.20;1.23;;;17.00;22.70;;;;;;5066374;28;20426;-67
2023/04/11 01:03:00;;;;;;;3.20;1.30;;;16.80;22.50;;;;;;5070194;28;20428;-67
2023/04/11 01:05:27;;;;;;;3.20;1.20;;;16.70;23.20;;;;;;5069664;28;20501;-66
2023/04/11 01:07:54;;;;;;;3.37;1.40;;;17.20;22.30;;;;;;5069488;28;20959;-67
2023/04/11 01:10:21;;;;;;;3.13;1.23;;;17.50;21.90;;;;;;5068947;28;20888;-67
2023/04/11 01:12:47;;;;;;;3.27;1.30;;;17.10;22.30;;;;;;5069546;28;20464;-67
2023/04/11 01:15:12;;;;;;;3.10;1.20;;;16.60;23.40;;;;;;5068602;28;20465;-67
2023/04/11 01:17:40;;;;;;;3.10;1.20;;;16.50;23.50;;;;;;5069863;28;20434;-66
2023/04/11 01:20:07;;;;;;;3.20;1.30;;;16.30;23.70;;;;;;5066467;28;20543;-67
2023/04/11 01:22:34;;;;;;;3.20;1.30;;;16.30;23.60;;;;;;5069228;28;20422;-66
2023/04/11 01:25:00;;;;;;;3.10;1.20;;;16.50;23.50;;;;;;5069491;28;20486;-67
2023/04/11 01:27:26;;;;;;;3.57;1.47;;;16.70;23.60;;;;;;5065035;28;20466;-66
2023/04/11 01:29:52;;;;;;;3.00;1.20;;;16.80;23.40;;;;;;5069906;28;20434;-67
2023/04/11 01:32:17;;;;;;;3.20;1.40;;;16.70;23.60;;;;;;5069102;28;20209;-67
2023/04/11 01:34:44;;;;;;;3.20;1.40;;;16.90;23.40;;;;;;5069192;28;20661;-67
2023/04/11 01:37:10;;;;;;;3.10;1.30;;;16.50;23.80;;;;;;5067190;28;20642;-67
2023/04/11 01:39:36;;;;;;;3.27;1.40;;;16.90;23.40;;;;;;5076884;28;20566;-67
2023/04/11 01:42:03;;;;;;;3.00;1.20;;;17.20;23.00;;;;;;5070849;28;20179;-67
2023/04/11 01:44:30;;;;;;;3.20;1.37;;;17.40;22.80;;;;;;5070793;28;20230;-67
2023/04/11 01:46:56;;;;;;;3.10;1.30;;;16.80;23.70;;;;;;5070941;28;20433;-67
2023/04/11 01:49:23;;;;;;;3.00;1.20;;;16.90;23.60;;;;;;5070939;28;20876;-67
2023/04/11 01:51:49;;;;;;;3.10;1.30;;;16.90;23.70;;;;;;5070645;28;20167;-66
2023/04/11 01:54:14;;;;;;;3.20;1.40;;;17.20;23.10;;;;;;5070717;28;20825;-67
2023/04/11 01:56:40;;;;;;;3.20;1.40;;;16.90;23.80;;;;;;5069550;28;20203;-67
2023/04/11 01:59:05;;;;;;;3.00;1.27;;;16.50;24.50;;;;;;5070888;28;20205;-67
2023/04/11 02:01:31;;;;;;;3.00;1.20;;;16.80;24.00;;;;;;5070102;28;20179;-67
2023/04/11 02:03:57;;;;;;;3.00;1.23;;;16.60;24.70;;;;;;5074492;28;20180;-67
2023/04/11 02:06:22;;;;;;;3.60;1.63;;;16.50;25.20;;;;;;5074393;28;20259;-67
2023/04/11 02:08:48;;;;;;;2.90;1.30;;;16.20;25.70;;;;;;5073747;28;20183;-67
2023/04/11 02:11:14;;;;;;;3.00;1.30;;;16.20;26.10;;;;;;5070811;28;20266;-67
2023/04/11 02:13:39;;;;;;;2.90;1.27;;;16.30;26.00;;;;;;5073089;28;20189;-66
2023/04/11 02:16:13;;;;;;;2.90;1.37;;;16.20;26.50;;;;;;5071077;28;20268;-67
2023/04/11 02:18:40;;;;;;;2.87;1.27;;;15.80;27.30;;;;;;5070310;28;20184;-67
2023/04/11 02:21:06;;;;;;;5.20;1.53;;;16.30;26.80;;;;;;5067430;28;20964;-67
2023/04/11 02:23:33;;;;;;;3.10;1.40;;;16.20;27.00;;;;;;5071829;28;20438;-67
2023/04/11 02:26:00;;;;;;;2.80;1.20;;;16.00;27.80;;;;;;5074347;28;20442;-67
2023/04/11 02:28:25;;;;;;;3.00;1.40;;;16.00;28.90;;;;;;5073049;28;20463;-67
2023/04/11 02:30:51;;;;;;;2.80;1.40;;;16.00;28.70;;;;;;5072862;28;20445;-67
2023/04/11 02:33:16;;;;;;;2.90;1.60;;;15.40;32.80;;;;;;5070373;28;20187;-67
2023/04/11 02:35:42;;;;;;;2.57;1.20;;;15.40;34.00;;;;;;5073464;28;20222;-67
2023/04/11 02:38:08;;;;;;;2.60;1.33;;;15.80;33.50;;;;;;5073421;28;20647;-67
2023/04/11 02:40:33;;;;;;;2.50;1.30;;;14.90;35.90;;;;;;5073324;28;20187;-67
2023/04/11 02:43:00;;;;;;;2.87;1.53;;;14.50;37.60;;;;;;5067040;28;20553;-67
2023/04/11 02:45:25;;;;;;;2.50;1.40;;;14.30;40.70;;;;;;5072789;28;20717;-67
2023/04/11 02:47:51;;;;;;;2.30;1.40;;;14.40;41.00;;;;;;5072466;28;20525;-67
2023/04/11 02:50:16;;;;;;;2.40;1.30;;;14.40;43.50;;;;;;5106245;28;20215;-67
2023/04/11 02:52:44;;;;;;;2.53;1.57;;;14.20;46.10;;;;;;5066927;28;20184;-67
2023/04/11 02:55:09;;;;;;;2.10;1.30;;;14.30;47.80;;;;;;5069022;28;20194;-67
2023/04/11 02:57:35;;;;;;;2.00;1.10;;;13.90;49.30;;;;;;5072699;28;20459;-67
2023/04/11 03:00:05;;;;;;;2.10;1.23;;;13.60;50.70;;;;;;5070574;28;20225;-67
2023/04/11 03:02:31;;;;;;;2.00;1.20;;;13.80;50.80;;;;;;5105094;28;20650;-67
2023/04/11 03:04:56;;;;;;;2.10;1.20;;;14.10;48.80;;;;;;5071221;28;20439;-67
2023/04/11 03:07:22;;;;;;;2.03;1.23;;;14.10;48.20;;;;;;5073124;28;20508;-67
2023/04/11 03:09:48;;;;;;;2.10;1.30;;;16.20;47.40;;;;;;5072619;28;20584;-67
2023/04/11 03:12:13;;;;;;;2.20;1.40;;;14.50;47.80;;;;;;5072703;28;20268;-67
2023/04/11 03:14:39;;;;;;;1.93;1.10;;;14.60;46.80;;;;;;5071498;28;20179;-66
2023/04/11 03:17:04;;;;;;;2.87;1.50;;;14.50;45.70;;;;;;5071785;28;20233;-67
2023/04/11 03:19:30;;;;;;;2.00;1.20;;;14.10;46.50;;;;;;5071789;28;20179;-67
2023/04/11 03:21:56;;;;;;;2.10;1.30;;;13.80;49.90;;;;;;5073010;28;20257;-66
2023/04/11 03:24:21;;;;;;;2.00;1.20;;;14.10;48.70;;;;;;5070236;28;20198;-66
2023/04/11 03:26:47;;;;;;;2.67;1.60;;;13.80;56.60;;;;;;5071643;28;20572;-67
2023/04/11 03:29:12;;;;;;;2.00;1.20;;;13.30;62.30;;;;;;5072498;28;20266;-67
2023/04/11 03:31:38;;;;;;;2.00;1.13;;;13.00;61.50;;;;;;5073121;28;20186;-67
2023/04/11 03:34:06;;;;;;;2.10;1.30;;;13.00;61.60;;;;;;5069702;28;20183;-66
2023/04/11 03:36:31;;;;;;;2.00;1.20;;;12.90;60.90;;;;;;5070305;28;20220;-66
2023/04/11 03:38:57;;;;;;;2.10;1.20;;;12.80;60.70;;;;;;5072524;28;20443;-67
2023/04/11 03:41:23;;;;;;;2.17;1.30;;;12.90;60.00;;;;;;5072503;28;20178;-67
2023/04/11 03:43:48;;;;;;;2.13;1.30;;;13.00;56.80;;;;;;5070912;28;20184;-67
2023/04/11 03:46:14;;;;;;;2.10;1.30;;;13.00;56.70;;;;;;5070374;28;20204;-66
2023/04/11 03:48:39;;;;;;;2.10;1.20;;;13.20;56.20;;;;;;5072340;28;20254;-67
2023/04/11 03:51:06;;;;;;;2.20;1.20;;;13.10;54.90;;;;;;5072730;28;20199;-67
2023/04/11 03:53:32;;;;;;;2.10;1.20;;;13.40;51.70;;;;;;5072546;28;20218;-67
2023/04/11 03:55:57;;;;;;;2.10;1.27;;;14.00;48.80;;;;;;5072244;28;20875;-67
2023/04/11 03:58:23;;;;;;;2.07;1.23;;;14.60;45.60;;;;;;5071795;28;20258;-67
2023/04/11 04:00:48;;;;;;;2.00;1.17;;;14.30;46.70;;;;;;5072871;28;20546;-67
2023/04/11 04:03:14;;;;;;;2.00;1.13;;;14.30;48.40;;;;;;5071995;28;20176;-67
2023/04/11 04:05:40;;;;;;;2.00;1.10;;;14.60;47.40;;;;;;5072267;28;20209;-68
2023/04/11 04:08:06;;;;;;;2.10;1.27;;;14.90;45.20;;;;;;5072471;28;20185;-67
2023/04/11 04:10:32;;;;;;;2.00;1.10;;;14.90;46.70;;;;;;5072280;28;20419;-67
2023/04/11 04:12:57;;;;;;;2.00;1.20;;;14.90;46.30;;;;;;5070959;28;20449;-67
2023/04/11 04:15:23;;;;;;;2.00;1.10;;;14.40;49.40;;;;;;5071106;28;20717;-67
2023/04/11 04:17:50;;;;;;;1.97;1.10;;;14.40;50.50;;;;;;5068047;28;20172;-67
2023/04/11 04:20:15;;;;;;;2.00;1.20;;;14.50;49.60;;;;;;5071128;28;20854;-67
2023/04/11 04:22:41;;;;;;;2.03;1.20;;;14.50;49.60;;;;;;5066227;28;20465;-67
2023/04/11 04:25:11;;;;;;;1.97;1.10;;;14.90;48.10;;;;;;5069490;28;20677;-68
2023/04/11 04:27:43;;;;;;;2.00;1.30;;;14.90;47.80;;;;;;5071011;28;20184;-67
2023/04/11 04:30:14;;;;;;;1.93;1.10;;;14.90;48.40;;;;;;5071094;28;20955;-67
2023/04/11 04:32:43;;;;;;;2.10;1.30;;;14.90;48.80;;;;;;5066841;28;20774;-67
2023/04/11 04:35:10;;;;;;;2.03;1.27;;;14.70;47.40;;;;;;5066344;28;20995;-67
2023/04/11 04:37:38;;;;;;;2.13;1.40;;;14.80;47.10;;;;;;5100144;28;20454;-67
2023/04/11 04:40:07;;;;;;;2.00;1.20;;;14.70;48.00;;;;;;5070945;28;20462;-67
2023/04/11 04:42:35;;;;;;;2.10;1.30;;;14.40;48.30;;;;;;5069794;28;20440;-67
2023/04/11 04:45:01;;;;;;;2.00;1.10;;;14.40;46.10;;;;;;5067561;28;20479;-68
2023/04/11 04:47:32;;;;;;;2.00;1.20;;;13.80;48.40;;;;;;5069884;28;20455;-65
2023/04/11 04:49:58;;;;;;;2.00;1.20;;;13.80;49.80;;;;;;5067749;28;20486;-66
2023/04/11 04:52:26;;;;;;;2.00;1.20;;;13.70;51.50;;;;;;5069686;28;20479;-66
2023/04/11 04:54:52;;;;;;;2.00;1.20;;;13.70;52.30;;;;;;5067397;28;20433;-67
2023/04/11 04:57:18;;;;;;;1.97;1.10;;;13.20;55.00;;;;;;5069210;28;20456;-66
2023/04/11 04:59:44;;;;;;;2.00;1.20;;;12.60;60.00;;;;;;5069904;28;20415;-67
2023/04/11 05:02:10;;;;;;;1.90;1.10;;;12.40;63.10;;;;;;5067120;28;20622;-66
2023/04/11 05:04:36;;;;;;;2.43;1.30;;;11.80;70.70;;;;;;5068300;28;20487;-67
2023/04/11 05:07:01;;;;;;;2.10;1.30;;;11.90;70.80;;;;;;5068751;28;20446;-67
2023/04/11 05:09:27;;;;;;;2.10;1.30;;;12.40;66.20;;;;;;5066227;28;20658;-66
2023/04/11 05:11:53;;;;;;;2.10;1.20;;;12.10;64.40;;;;;;5065221;28;20180;-66
2023/04/11 05:14:18;;;;;;;1.90;1.10;;;12.00;64.80;;;;;;5068393;28;20902;-67
2023/04/11 05:16:44;;;;;;;2.10;1.20;;;12.10;62.30;;;;;;5068985;28;20204;-66
2023/04/11 05:19:10;;;;;;;2.00;1.10;;;12.00;60.10;;;;;;5071139;28;20646;-66
2023/04/11 05:21:37;;;;;;;2.00;1.17;;;12.00;61.80;;;;;;5069684;28;20573;-66
2023/04/11 05:24:02;;;;;;;1.97;1.10;;;11.30;62.00;;;;;;5070446;28;20175;-67
2023/04/11 05:26:28;;;;;;;2.00;1.20;;;10.80;68.20;;;;;;5069892;28;20476;-67
2023/04/11 05:28:54;;;;;;;2.10;1.30;;;11.00;69.40;;;;;;5069962;28;20179;-66
2023/04/11 05:31:20;;;;;;;2.00;1.10;;;11.10;67.90;;;;;;5069803;28;20436;-66
2023/04/11 05:33:46;;;;;;;2.00;1.17;;;11.10;63.50;;;;;;5069570;28;20432;-65
2023/04/11 05:36:13;;;;;;;1.93;1.10;;;11.00;67.30;;;;;;5069748;28;20207;-67
2023/04/11 05:38:39;;;;;;;1.90;1.10;;;11.50;65.90;;;;;;5080232;28;20165;-66
2023/04/11 05:41:06;;;;;;;1.97;1.20;;;11.40;63.50;;;;;;5075172;28;20402;-65
2023/04/11 05:43:32;;;;;;;2.00;1.20;;;10.80;63.60;;;;;;5076963;28;20418;-67
2023/04/11 05:45:57;;;;;;;2.00;1.20;;;10.90;60.20;;;;;;5074783;28;20475;-66
2023/04/11 05:48:23;;;;;;;2.10;1.30;;;10.70;64.20;;;;;;5074727;28;20176;-65
2023/04/11 05:50:49;;;;;;;2.00;1.20;;;10.00;62.20;;;;;;5075002;28;20175;-67
2023/04/11 05:53:15;;;;;;;1.97;1.13;;;10.00;59.00;;;;;;5074520;28;20199;-65
2023/04/11 05:55:41;;;;;;;2.00;1.20;;;9.50;56.90;;;;;;5074624;28;20491;-66
2023/04/11 05:58:08;;;;;;;2.00;1.20;;;9.70;57.00;;;;;;5074834;28;20405;-67
2023/04/11 06:00:34;;;;;;;2.03;1.20;;;9.90;53.20;;;;;;5075202;28;20182;-65
2023/04/11 06:03:00;;;;;;;2.00;1.20;;;9.60;55.90;;;;;;5074056;28;20508;-65
2023/04/11 06:05:30;;;;;;;1.93;1.10;;;9.60;54.90;;;;;;5074522;28;20183;-66
2023/04/11 06:07:57;;;;;;;2.07;1.30;;;9.70;54.00;;;;;;5073634;28;20440;-66
2023/04/11 06:10:23;;;;;;;2.23;1.40;;;10.10;50.50;;;;;;5073758;28;20432;-66
2023/04/11 06:12:48;;;;;;;2.00;1.23;;;10.50;49.00;;;;;;5071851;28;20437;-66
2023/04/11 06:15:14;;;;;;;2.20;1.40;;;11.00;47.40;;;;;;5073233;28;20207;-66
2023/04/11 06:17:40;;;;;;;1.97;1.20;;;11.50;46.50;;;;;;5073914;28;20232;-67
2023/04/11 06:20:07;;;;;;;2.10;1.20;;;11.70;43.30;;;;;;5070413;28;20547;-66
2023/04/11 06:22:33;;;;;;;1.97;1.20;;;11.70;44.90;;;;;;5072554;28;20175;-66
2023/04/11 06:24:58;;;;;;;1.93;1.10;;;12.20;44.10;;;;;;5073012;28;20436;-66
2023/04/11 06:27:25;;;;;;;2.10;1.30;;;11.90;44.00;;;;;;5073537;28;20603;-67
2023/04/11 06:29:51;;;;;;;2.10;1.27;;;11.90;44.00;;;;;;5073705;28;20260;-66
2023/04/11 06:32:16;;;;;;;1.90;1.10;;;12.60;46.60;;;;;;5073189;28;20464;-68
2023/04/11 06:34:42;;;;;;;2.10;1.20;;;12.80;47.10;;;;;;5064440;28;20564;-68
2023/04/11 06:37:08;;;;;;;1.90;1.10;;;12.60;47.20;;;;;;5073172;28;20206;-66
2023/04/11 06:39:34;;;;;;;2.00;1.10;;;12.50;47.10;;;;;;5073238;28;20179;-66
2023/04/11 06:42:00;;;;;;;2.00;1.17;;;12.20;48.40;;;;;;5072700;28;21033;-66
2023/04/11 06:44:27;;;;;;;2.03;1.20;;;12.30;45.40;;;;;;5071609;28;20860;-67
2023/04/11 06:46:52;;;;;;;1.93;1.20;;;12.50;47.00;;;;;;5072447;28;20456;-68
2023/04/11 06:49:18;;;;;;;2.20;1.30;;;12.50;44.40;;;;;;5068709;28;20433;-66
2023/04/11 06:51:50;;;;;;;2.00;1.10;;;12.70;42.40;;;;;;5073402;28;20543;-66
2023/04/11 06:54:17;;;;;;;2.00;1.20;;;12.90;42.60;;;;;;5101926;28;20191;-68
2023/04/11 06:56:43;;;;;;;1.93;1.17;;;12.50;41.30;;;;;;5072132;28;20477;-68
2023/04/11 06:59:09;;;;;;;1.90;1.20;;;13.00;41.60;;;;;;5072539;28;20426;-68
2023/04/11 07:01:38;;;;;;;2.10;1.30;;;12.70;39.60;;;;;;5071853;28;20472;-66
2023/04/11 07:04:04;;;;;;;2.10;1.30;;;14.70;41.30;;;;;;5071657;28;20427;-67
2023/04/11 07:06:30;;;;;;;2.03;1.30;;;13.10;39.40;;;;;;5070635;28;20860;-66
2023/04/11 07:08:56;;;;;;;2.03;1.20;;;13.20;41.70;;;;;;5073093;28;20430;-66
2023/04/11 07:11:22;;;;;;;2.10;1.30;;;13.50;37.10;;;;;;5070205;28;20476;-66
2023/04/11 07:13:49;;;;;;;2.00;1.20;;;13.30;39.70;;;;;;5070913;28;20449;-66
2023/04/11 07:16:14;;;;;;;2.00;1.20;;;13.20;38.20;;;;;;5072185;28;20293;-66
2023/04/11 07:18:40;;;;;;;2.00;1.20;;;13.00;38.10;;;;;;5071354;28;20828;-66
2023/04/11 07:21:10;;;;;;;2.00;1.20;;;12.70;39.10;;;;;;5069801;28;20170;-67
2023/04/11 07:23:35;;;;;;;1.90;1.10;;;12.90;39.80;;;;;;5068918;28;20224;-75
2023/04/11 07:26:02;;;;;;;1.90;1.10;;;13.10;38.30;;;;;;5070710;28;20458;-74
2023/04/11 07:28:30;;;;;;;2.10;1.30;;;12.60;41.10;;;;;;5069797;28;20194;-74
2023/04/11 07:30:56;;;;;;;2.10;1.20;;;12.10;41.90;;;;;;5071449;28;20486;-75
2023/04/11 07:33:22;;;;;;;2.00;1.20;;;11.80;43.10;;;;;;5070714;28;20662;-75
2023/04/11 07:35:48;;;;;;;2.00;1.10;;;11.90;41.30;;;;;;5067521;28;21077;-69
2023/04/11 07:38:27;;;;;;;2.53;1.53;;;11.90;40.90;;;;;;5068653;28;20184;-69
2023/04/11 07:40:53;;;;;;;2.00;1.20;;;12.30;38.90;;;;;;5071552;28;20478;-69
2023/04/11 07:43:18;;;;;;;2.00;1.20;;;13.00;39.60;;;;;;5074702;28;20510;-69
2023/04/11 07:45:44;;;;;;;1.97;1.17;;;13.30;36.70;;;;;;5105312;28;20206;-68
2023/04/11 07:48:10;;;;;;;2.00;1.23;;;12.90;37.10;;;;;;5071933;28;20944;-68
2023/04/11 07:50:36;;;;;;;1.90;1.10;;;12.50;38.80;;;;;;5104698;28;20191;-68
2023/04/11 07:53:02;;;;;;;1.90;1.17;;;12.40;37.30;;;;;;5073083;28;20424;-68
2023/04/11 07:55:27;;;;;;;1.90;1.10;;;12.90;37.90;;;;;;5072260;28;20203;-67
2023/04/11 07:57:53;;;;;;;1.90;1.13;;;13.30;37.00;;;;;;5072015;28;20186;-67
2023/04/11 08:00:22;;;;;;;1.97;1.17;;;12.70;36.90;;;;;;5072813;28;20180;-68
2023/04/11 08:02:48;;;;;;;2.00;1.30;;;13.30;37.20;;;;;;5072137;28;20260;-68
2023/04/11 08:05:14;;;;;;;2.00;1.23;;;12.70;38.10;;;;;;5071742;28;20488;-67
2023/04/11 08:07:40;;;;;;;2.10;1.27;;;13.10;36.40;;;;;;5072497;28;21030;-70
2023/04/11 08:10:07;;;;;;;1.90;1.20;;;13.10;36.20;;;;;;5072373;28;20181;-69
2023/04/11 08:12:32;;;;;;;2.03;1.33;;;12.80;35.90;;;;;;5072125;28;20521;-69
2023/04/11 08:14:59;;;;;;;1.90;1.20;;;13.00;36.50;;;;;;5072052;28;20525;-68
2023/04/11 08:17:27;;;;;;;1.80;1.10;;;13.20;36.30;;;;;;5071687;28;20622;-67
2023/04/11 08:19:54;;;;;;;2.00;1.27;;;13.30;35.40;;;;;;5072275;28;20401;-68
2023/04/11 08:22:19;;;;;;;1.90;1.20;;;13.20;37.30;;;;;;5071355;28;20454;-68
2023/04/11 08:24:45;;;;;;;1.90;1.20;;;13.20;36.10;;;;;;5071754;28;20420;-68
2023/04/11 08:27:10;;;;;;;1.90;1.20;;;13.00;35.50;;;;;;5071873;28;20552;-68
2023/04/11 08:29:36;;;;;;;2.37;1.33;;;12.90;37.30;;;;;;5072081;28;20536;-68
2023/04/11 08:32:03;;;;;;;1.80;1.10;;;13.20;35.60;;;;;;5072726;28;20177;-68
2023/04/11 08:34:31;;;;;;;2.10;1.40;;;13.50;35.60;;;;;;5071486;28;20578;-68
2023/04/11 08:36:57;;;;;;;1.87;1.10;;;12.90;35.00;;;;;;5068153;28;20584;-68
2023/04/11 08:39:22;;;;;;;2.10;1.30;;;12.50;37.20;;;;;;5073816;28;21192;-68
2023/04/11 08:41:48;;;;;;;2.00;1.20;;;13.40;36.60;;;;;;5071769;28;20917;-68
2023/04/11 08:44:13;;;;;;;1.90;1.10;;;12.90;36.30;;;;;;5071326;28;20524;-68
2023/04/11 08:46:41;;;;;;;2.00;1.30;;;12.90;38.00;;;;;;5071363;28;20203;-70
2023/04/11 08:49:07;;;;;;;2.03;1.30;;;13.10;37.70;;;;;;5070203;28;20271;-68
2023/04/11 08:51:32;;;;;;;2.00;1.30;;;12.90;35.50;;;;;;5071173;28;20495;-67
2023/04/11 08:54:04;;;;;;;2.00;1.20;;;12.90;36.50;;;;;;5072766;28;20651;-68
2023/04/11 08:56:33;;;;;;;1.90;1.20;;;12.70;36.90;;;;;;5070979;28;20277;-68
2023/04/11 08:58:58;;;;;;;1.93;1.20;;;13.00;35.70;;;;;;5071100;28;20421;-68
2023/04/11 09:01:31;;;;;;;2.10;1.30;;;13.10;37.70;;;;;;5070945;28;20418;-69
2023/04/11 09:03:59;;;;;;;1.90;1.20;;;13.20;34.80;;;;;;5071328;28;20157;-68
2023/04/11 09:06:29;;;;;;;2.10;1.30;;;13.40;35.00;;;;;;5070532;28;20621;-68
2023/04/11 09:08:59;;;;;;;2.00;1.30;;;13.80;33.60;;;;;;5070958;28;20523;-68
2023/04/11 09:11:25;;;;;;;2.00;1.30;;;13.70;34.40;;;;;;5070776;28;20569;-69
2023/04/11 09:14:09;;;;;;;2.10;1.30;;;13.20;35.30;;;;;;5070073;28;20439;-68
2023/04/11 09:16:35;;;;;;;2.10;1.40;;;13.10;35.00;;;;;;5071275;28;20525;-69
2023/04/11 09:19:00;;;;;;;2.00;1.20;;;13.40;33.70;;;;;;5071274;28;20489;-69
2023/04/11 09:21:30;;;;;;;2.53;1.60;;;13.00;35.90;;;;;;5068452;28;21022;-68
2023/04/11 09:24:14;;;;;;;1.90;1.20;;;12.90;34.60;;;;;;5067471;28;20168;-68
2023/04/11 09:26:40;;;;;;;2.00;1.30;;;13.20;33.50;;;;;;5070517;28;20983;-68
2023/04/11 09:29:05;;;;;;;1.90;1.20;;;13.40;32.60;;;;;;5069590;28;20435;-68
2023/04/11 09:31:44;;;;;;;4.33;2.33;;;13.90;33.90;;;;;;5070316;28;20182;-69
2023/04/11 09:34:22;;;;;;;1.90;1.20;;;13.50;32.80;;;;;;5065422;28;20183;-68
2023/04/11 09:36:54;;;;;;;2.10;1.37;;;13.20;31.90;;;;;;5070664;28;20557;-69
2023/04/11 09:39:20;;;;;;;2.00;1.30;;;12.90;33.60;;;;;;5070621;28;20457;-69
2023/04/11 09:41:46;;;;;;;2.00;1.20;;;12.90;35.30;;;;;;5070967;28;21036;-68
2023/04/11 09:44:12;;;;;;;6.70;1.73;;;13.70;32.60;;;;;;5069776;28;20409;-69
2023/04/11 09:46:55;;;;;;;2.00;1.20;;;14.30;31.70;;;;;;5069351;28;20741;-69
2023/04/11 09:49:24;;;;;;;1.80;1.10;;;12.60;29.00;;;;;;5068409;28;20442;-69
2023/04/11 09:51:51;;;;;;;2.00;1.30;;;14.10;30.00;;;;;;5069750;28;20417;-69
2023/04/11 09:54:19;;;;;;;1.87;1.17;;;13.90;29.80;;;;;;5068106;28;20433;-69
2023/04/11 09:56:45;;;;;;;1.87;1.20;;;13.80;30.50;;;;;;5068468;28;20460;-68
2023/04/11 09:59:13;;;;;;;2.00;1.30;;;13.70;30.60;;;;;;5067114;28;20443;-69
2023/04/11 10:01:39;;;;;;;2.00;1.30;;;13.70;32.00;;;;;;5067471;28;20443;-69
2023/04/11 10:04:05;;;;;;;2.00;1.20;;;14.20;30.80;;;;;;5069827;28;20430;-68
2023/04/11 10:06:43;;;;;;;2.20;1.37;;;14.10;31.10;;;;;;5069184;28;20468;-68
2023/04/11 10:09:11;;;;;;;2.10;1.30;;;13.90;31.60;;;;;;5066680;28;20179;-71
2023/04/11 10:11:41;;;;;;;2.00;1.30;;;14.40;31.40;;;;;;5072660;28;20441;-72
2023/04/11 10:14:07;;;;;;;2.00;1.20;;;14.50;32.80;;;;;;5081793;28;20468;-71
2023/04/11 10:16:33;;;;;;;1.97;1.20;;;14.10;30.80;;;;;;5075654;28;20559;-70
2023/04/11 10:19:03;;;;;;;1.83;1.10;;;13.90;31.50;;;;;;5070560;28;20171;-71
2023/04/11 10:21:28;;;;;;;2.20;1.40;;;13.40;32.30;;;;;;5070867;28;20427;-71
2023/04/11 10:24:12;;;;;;;2.00;1.20;;;13.50;31.20;;;;;;5073295;28;20409;-69
2023/04/11 10:26:48;;;;;;;2.00;1.20;;;13.40;31.90;;;;;;5074839;28;20191;-70
2023/04/11 10:32:23;;;;;;;2.10;1.27;;;12.70;34.90;;;;;;5075011;28;20496;-70
2023/04/11 10:34:49;;;;;;;2.00;1.30;;;12.70;34.90;;;;;;5074762;28;20435;-70
2023/04/11 10:37:15;;;;;;;2.00;1.30;;;12.70;34.90;;;;;;5074150;28;20437;-69
2023/04/11 10:39:47;;;;;;;1.80;1.10;;;13.30;34.20;;;;;;5073893;28;20422;-71
2023/04/11 10:42:42;;;;;;;1.87;1.20;;;13.90;32.60;;;;;;5074508;28;20832;-71
2023/04/11 10:45:18;;;;;;;1.90;1.20;;;14.60;31.00;;;;;;5069685;28;20831;-71
2023/04/11 10:47:50;;;;;;;1.90;1.23;;;14.60;29.70;;;;;;5106944;28;20464;-71
2023/04/11 10:50:25;;;;;;;2.00;1.30;;;15.30;29.40;;;;;;5073915;28;20420;-71
2023/04/11 10:52:58;;;;;;;1.90;1.30;;;14.70;29.70;;;;;;5073672;28;20746;-71
2023/04/11 10:55:28;;;;;;;1.97;1.30;;;14.70;29.60;;;;;;5073607;28;20457;-71
2023/04/11 10:58:15;;;;;;;2.10;1.40;;;14.30;31.30;;;;;;5073583;28;20774;-71
2023/04/11 11:00:53;;;;;;;1.90;1.20;;;14.90;29.10;;;;;;5073607;28;20406;-71
2023/04/11 11:03:32;;;;;;;2.00;1.33;;;14.90;28.90;;;;;;5073352;28;20401;-71
2023/04/11 11:06:05;;;;;;;1.90;1.30;;;15.00;27.80;;;;;;5075829;28;20449;-71
2023/04/11 11:08:40;;;;;;;1.90;1.20;;;15.20;27.00;;;;;;5072023;28;20401;-71
2023/04/11 11:11:07;;;;;;;1.90;1.30;;;14.70;28.30;;;;;;5073392;28;20425;-69
2023/04/11 11:13:43;;;;;;;1.80;1.20;;;14.50;27.30;;;;;;5074718;28;20980;-71
2023/04/11 11:16:12;;;;;;;1.73;1.10;;;15.10;27.20;;;;;;5071503;28;20495;-71
2023/04/11 11:18:38;;;;;;;2.00;1.33;;;15.80;25.70;;;;;;5078817;28;20499;-69
2023/04/11 11:21:04;;;;;;;1.90;1.30;;;15.50;26.30;;;;;;5073939;28;20462;-71
2023/04/11 11:23:29;;;;;;;2.20;1.40;;;15.40;25.70;;;;;;5071255;28;20220;-71
2023/04/11 11:25:57;;;;;;;1.80;1.13;;;15.20;25.80;;;;;;5071133;28;20452;-71
2023/04/11 11:28:23;;;;;;;1.80;1.20;;;15.30;25.80;;;;;;5072666;28;20601;-69
2023/04/11 11:30:50;;;;;;;1.90;1.20;;;15.10;25.50;;;;;;5072047;28;20457;-71
2023/04/11 11:33:18;;;;;;;1.90;1.13;;;15.60;24.00;;;;;;5072361;28;20497;-69
2023/04/11 11:35:53;;;;;;;1.90;1.10;;;15.50;23.70;;;;;;5071597;28;20475;-70
2023/04/11 11:38:20;;;;;;;2.17;1.20;;;16.30;21.10;;;;;;5071589;28;20431;-70
2023/04/11 11:40:48;;;;;;;2.03;1.20;;;15.40;22.70;;;;;;5070811;28;20822;-70
2023/04/11 11:43:15;;;;;;;2.00;1.30;;;14.70;23.00;;;;;;5070447;28;21087;-72
2023/04/11 11:45:41;;;;;;;2.20;1.37;;;14.70;21.90;;;;;;5073048;28;20972;-71
2023/04/11 11:48:07;;;;;;;2.10;1.30;;;14.70;20.60;;;;;;5070522;28;20425;-71
2023/04/11 11:50:32;;;;;;;2.10;1.40;;;14.70;22.10;;;;;;5074237;28;20435;-72
2023/04/11 11:53:12;;;;;;;2.10;1.33;;;15.00;21.10;;;;;;5073901;28;20451;-71
2023/04/11 11:55:38;;;;;;;2.10;1.30;;;15.10;21.30;;;;;;5072315;28;20262;-71
2023/04/11 11:58:04;;;;;;;2.10;1.30;;;15.50;21.00;;;;;;5072707;28;20884;-71
2023/04/11 12:00:36;;;;;;;2.10;1.20;;;15.10;21.50;;;;;;5071693;28;20173;-70
2023/04/11 12:03:02;;;;;;;2.10;1.20;;;15.10;21.50;;;;;;5072091;28;20422;-71
2023/04/11 12:05:30;;;;;;;2.10;1.30;;;14.80;21.20;;;;;;5072199;28;20418;-70
2023/04/11 12:07:58;;;;;;;2.20;1.40;;;14.60;20.70;;;;;;5072054;28;20425;-71
2023/04/11 12:10:26;;;;;;;2.10;1.30;;;14.90;20.70;;;;;;5072036;28;20497;-71
2023/04/11 12:12:51;;;;;;;2.20;1.40;;;15.30;20.30;;;;;;5070578;28;20429;-69
2023/04/11 12:15:19;;;;;;;2.40;1.40;;;16.50;21.00;;;;;;5069758;28;20808;-69
2023/04/11 12:17:50;;;;;;;2.50;1.50;;;16.50;19.40;;;;;;5071379;28;20594;-71
2023/04/11 12:20:15;;;;;;;2.40;1.30;;;16.10;18.80;;;;;;5072077;28;20761;-68
2023/04/11 12:22:41;;;;;;;2.40;1.30;;;15.80;19.90;;;;;;5073441;28;20436;-71
2023/04/11 12:25:12;;;;;;;2.60;1.50;;;15.70;19.80;;;;;;5072197;28;20325;-71
2023/04/11 12:27:42;;;;;;;2.30;1.20;;;15.70;20.50;;;;;;5071250;28;20210;-69
2023/04/11 12:30:09;;;;;;;2.43;1.30;;;15.80;20.70;;;;;;5070140;28;20413;-69
2023/04/11 12:32:35;;;;;;;2.40;1.10;;;16.30;20.50;;;;;;5076231;28;20436;-71
2023/04/11 12:35:03;;;;;;;2.53;1.27;;;16.40;20.90;;;;;;5072079;28;20435;-71
2023/04/11 12:37:29;;;;;;;2.50;1.20;;;17.70;19.00;;;;;;5071752;28;20519;-71
2023/04/11 12:39:54;;;;;;;2.50;1.30;;;17.70;18.90;;;;;;5071474;28;20463;-70
2023/04/11 12:42:20;;;;;;;2.60;1.30;;;16.60;20.10;;;;;;5071331;28;20790;-66
2023/04/11 12:44:46;;;;;;;2.40;1.20;;;16.30;20.60;;;;;;5073065;28;20205;-71
2023/04/11 12:47:12;;;;;;;2.30;1.17;;;16.30;20.50;;;;;;5068244;28;20666;-68
2023/04/11 12:49:38;;;;;;;2.50;1.30;;;16.00;21.60;;;;;;5075249;28;20987;-70
2023/04/11 12:52:05;;;;;;;2.23;1.20;;;16.00;21.20;;;;;;5074006;28;20534;-69